Azalea Ace — A8ZJ6 — position and weather

sailwx.info

Track history (hours):
 
Tides and Currents Weather Stations Pressure Air Temp Water Temp Dewpoint Dewpoint Depression Visibility Wind Speed Wind Dir Waves Ship Positions

Azalea Ace

Last reported at 2017-Mar-16 20:27 UTC. Time now 2017-Mar-24 08:16 UTC.
Position S 38°00' E 144°55'.

Length 180 m; draft 7.6 m.

Type: Cargo ship. MMSI: 636015228.

Date/timePositionNaut miles runAvg speedWind from/ knotsBaromVisibWave heightAir tempDewpointWater temp
2017-Mar-16 20:27S 38°00' E 144°55'9 2.9
2017-Mar-16 17:11S 37°51' E 144°54'0 0.0
2017-Mar-16 16:29S 37°51' E 144°54'0 0.0
2017-Mar-16 15:26S 37°51' E 144°54'0 0.0
2017-Mar-16 14:29S 37°51' E 144°54'0 0.0
2017-Mar-16 13:26S 37°51' E 144°54'0 0.0
2017-Mar-16 12:29S 37°51' E 144°54'  
2017-Mar-13 21:32S 33°14' E 151°60'1414.4
2017-Mar-13 20:34S 33°02' E 152°09'1616.1
2017-Mar-13 19:34S 32°49' E 152°20'1716.5
2017-Mar-13 18:33S 32°36' E 152°33'3816.3
2017-Mar-13 16:14S 32°02' E 152°52'23416.9
2017-Mar-13 02:24S 28°13' E 153°46'1517.6
2017-Mar-13 01:33S 27°58' E 153°44'1717.4
2017-Mar-13 00:33S 27°41' E 153°43'1717.4
2017-Mar-12 23:33S 27°23' E 153°41'1716.9
2017-Mar-12 22:33S 27°06' E 153°39'1515.0
2017-Mar-12 21:33S 26°54' E 153°30'1616.3
2017-Mar-12 20:33S 26°44' E 153°15'8 8.0
2017-Mar-12 19:33S 26°50' E 153°09'1616.4
2017-Mar-12 18:33S 27°04' E 153°18'1313.5
2017-Mar-12 17:33S 27°17' E 153°14'7 6.6
2017-Mar-12 16:31S 27°23' E 153°10'0 0.0
2017-Mar-12 15:31S 27°23' E 153°10'0 0.0
2017-Mar-12 14:31S 27°23' E 153°10'0 0.0
2017-Mar-12 13:31S 27°23' E 153°10'0 0.0
2017-Mar-12 12:31S 27°23' E 153°10'0 0.0
2017-Mar-12 11:31S 27°23' E 153°10'0 0.0
2017-Mar-12 10:31S 27°23' E 153°10'0 0.0
2017-Mar-12 09:28S 27°23' E 153°10'0 0.0
2017-Mar-12 08:31S 27°23' E 153°10'0 0.0
2017-Mar-12 07:31S 27°23' E 153°10'0 0.0
2017-Mar-12 06:25S 27°23' E 153°10'0 0.3
2017-Mar-12 05:33S 27°23' E 153°10'10 9.7
2017-Mar-12 04:33S 27°15' E 153°17'1212.5
2017-Mar-12 03:33S 27°03' E 153°17'1414.4
2017-Mar-12 02:33S 26°50' E 153°09'1110.6
2017-Mar-12 01:33S 26°40' E 153°13'8 7.3
2017-Mar-12 00:30S 26°35' E 153°19'1 0.9
2017-Mar-11 23:33S 26°34' E 153°20'  
Track history (hours):
 
Tides and Currents Weather Stations Pressure Air Temp Water Temp Dewpoint Dewpoint Depression Visibility Wind Speed Wind Dir Waves Ship Positions

Azalea Ace

Last reported at 2017-Mar-16 20:27 UTC. Time now 2017-Mar-24 08:16 UTC.
Position S 38°00' E 144°55'.

Length 180 m; draft 7.6 m.

Type: Cargo ship. MMSI: 636015228.

Date/timePositionNaut miles runAvg speedWind from/ knotsBaromVisibWave heightAir tempDewpointWater temp
2017-Mar-16 20:27S 38°00' E 144°55'9 2.9
2017-Mar-16 17:11S 37°51' E 144°54'0 0.0
2017-Mar-16 16:29S 37°51' E 144°54'0 0.0
2017-Mar-16 15:26S 37°51' E 144°54'0 0.0
2017-Mar-16 14:29S 37°51' E 144°54'0 0.0
2017-Mar-16 13:26S 37°51' E 144°54'0 0.0
2017-Mar-16 12:29S 37°51' E 144°54'  
2017-Mar-13 21:32S 33°14' E 151°60'1414.4
2017-Mar-13 20:34S 33°02' E 152°09'1616.1
2017-Mar-13 19:34S 32°49' E 152°20'1716.5
2017-Mar-13 18:33S 32°36' E 152°33'3816.3
2017-Mar-13 16:14S 32°02' E 152°52'23416.9
2017-Mar-13 02:24S 28°13' E 153°46'1517.6
2017-Mar-13 01:33S 27°58' E 153°44'1717.4
2017-Mar-13 00:33S 27°41' E 153°43'1717.4
2017-Mar-12 23:33S 27°23' E 153°41'1716.9
2017-Mar-12 22:33S 27°06' E 153°39'1515.0
2017-Mar-12 21:33S 26°54' E 153°30'1616.3
2017-Mar-12 20:33S 26°44' E 153°15'8 8.0
2017-Mar-12 19:33S 26°50' E 153°09'1616.4
2017-Mar-12 18:33S 27°04' E 153°18'1313.5
2017-Mar-12 17:33S 27°17' E 153°14'7 6.6
2017-Mar-12 16:31S 27°23' E 153°10'0 0.0
2017-Mar-12 15:31S 27°23' E 153°10'0 0.0
2017-Mar-12 14:31S 27°23' E 153°10'0 0.0
2017-Mar-12 13:31S 27°23' E 153°10'0 0.0
2017-Mar-12 12:31S 27°23' E 153°10'0 0.0
2017-Mar-12 11:31S 27°23' E 153°10'0 0.0
2017-Mar-12 10:31S 27°23' E 153°10'0 0.0
2017-Mar-12 09:28S 27°23' E 153°10'0 0.0
2017-Mar-12 08:31S 27°23' E 153°10'0 0.0
2017-Mar-12 07:31S 27°23' E 153°10'0 0.0
2017-Mar-12 06:25S 27°23' E 153°10'0 0.3
2017-Mar-12 05:33S 27°23' E 153°10'10 9.7
2017-Mar-12 04:33S 27°15' E 153°17'1212.5
2017-Mar-12 03:33S 27°03' E 153°17'1414.4
2017-Mar-12 02:33S 26°50' E 153°09'1110.6
2017-Mar-12 01:33S 26°40' E 153°13'8 7.3
2017-Mar-12 00:30S 26°35' E 153°19'1 0.9
2017-Mar-11 23:33S 26°34' E 153°20'  

Dump ship's entire track history